createdAt,value
2022-12-29T00:01:44.725Z,100040.69
2022-12-29T00:04:15.788Z,100043.31
2022-12-29T00:06:44.394Z,100053.78
2022-12-29T00:09:13.948Z,100053.87
2022-12-29T00:11:45.063Z,100036.87
2022-12-29T00:14:32.666Z,100052.84
2022-12-29T00:17:00.541Z,100048.59
2022-12-29T00:19:50.332Z,100052.81
2022-12-29T00:22:36.607Z,100063.87
2022-12-29T00:25:25.636Z,100070.47
2022-12-29T00:28:12.181Z,100067.97
2022-12-29T00:31:03.005Z,100056.16
2022-12-29T00:33:51.968Z,100065.66
2022-12-29T00:36:42.125Z,100064.88
2022-12-29T00:39:36.131Z,100059.75
2022-12-29T00:42:28.289Z,100063.34
2022-12-29T00:44:56.233Z,100072.97
2022-12-29T00:47:27.671Z,100071.44
2022-12-29T00:49:55.510Z,100065.88
2022-12-29T00:52:23.522Z,100077.56
2022-12-29T00:54:51.769Z,100081.69
2022-12-29T00:57:19.925Z,100077.47
2022-12-29T00:59:47.792Z,100072.25
2022-12-29T01:02:17.072Z,100081.75
2022-12-29T01:04:48.072Z,100076.16
2022-12-29T01:07:17.252Z,100083.38
2022-12-29T01:10:04.717Z,100085.84
2022-12-29T01:12:46.272Z,100089.66
2022-12-29T01:15:16.195Z,100088.78
2022-12-29T01:17:44.555Z,100087.13
2022-12-29T01:20:15.588Z,100093.09
2022-12-29T01:22:45.005Z,100092.63
2022-12-29T01:25:13.878Z,100098.13
2022-12-29T01:27:42.005Z,100083.50
2022-12-29T01:30:10.377Z,100099.81
2022-12-29T01:32:38.650Z,100098.28
2022-12-29T01:35:06.846Z,100090.81
2022-12-29T01:37:36.208Z,100101.56
2022-12-29T01:40:07.764Z,100096.56
2022-12-29T01:42:35.705Z,100094.50
2022-12-29T01:45:23.770Z,100093.50
2022-12-29T01:47:58.524Z,100099.19
2022-12-29T01:50:41.323Z,100101.97
2022-12-29T01:53:18.536Z,100100.34
2022-12-29T01:55:53.404Z,100105.00
2022-12-29T01:58:25.551Z,100099.62
2022-12-29T02:00:53.552Z,100108.44
2022-12-29T02:03:24.468Z,100102.00
2022-12-29T02:06:03.900Z,100115.16
2022-12-29T02:08:32.247Z,100095.53
2022-12-29T02:11:04.534Z,100108.34
2022-12-29T02:13:35.614Z,100117.66
2022-12-29T02:16:15.620Z,100123.06
2022-12-29T02:19:00.341Z,100124.69
2022-12-29T02:21:46.831Z,100132.72
2022-12-29T02:24:46.521Z,100120.28
2022-12-29T02:27:24.190Z,100134.81
2022-12-29T02:30:33.750Z,100142.91
2022-12-29T02:33:04.761Z,100140.47
2022-12-29T02:35:50.440Z,100143.88
2022-12-29T02:38:37.328Z,100149.91
2022-12-29T02:41:06.019Z,100148.50
2022-12-29T02:43:45.576Z,100148.91
2022-12-29T02:46:35.491Z,100157.78
2022-12-29T02:49:27.581Z,100154.19
2022-12-29T02:52:04.916Z,100140.12
2022-12-29T02:54:42.202Z,100146.25
2022-12-29T02:57:21.715Z,100149.28
2022-12-29T03:00:12.454Z,100148.19
2022-12-29T03:03:08.218Z,100144.16
2022-12-29T03:05:46.331Z,100146.72
2022-12-29T03:08:57.447Z,100152.13
2022-12-29T03:11:52.569Z,100150.59
2022-12-29T03:15:30.229Z,100152.97
2022-12-29T03:18:07.827Z,100164.31
2022-12-29T03:20:48.380Z,100157.88
2022-12-29T03:23:18.017Z,100158.75
2022-12-29T03:25:52.311Z,100168.28
2022-12-29T03:28:29.084Z,100169.16
2022-12-29T03:31:01.234Z,100164.56
2022-12-29T03:33:34.015Z,100169.03
2022-12-29T03:36:08.146Z,100177.78
2022-12-29T03:39:03.417Z,100181.38
2022-12-29T03:41:35.902Z,100183.91
2022-12-29T03:44:06.671Z,100177.06
2022-12-29T03:46:35.302Z,100182.16
2022-12-29T03:49:03.919Z,100183.37
2022-12-29T03:51:31.875Z,100190.53
2022-12-29T03:54:00.144Z,100190.44
2022-12-29T03:56:28.410Z,100180.69
2022-12-29T03:58:56.254Z,100182.34
2022-12-29T04:01:25.536Z,100177.84
2022-12-29T04:03:56.958Z,100191.56
2022-12-29T04:06:25.015Z,100198.56
2022-12-29T04:08:54.213Z,100183.88
2022-12-29T04:11:25.180Z,100190.31
2022-12-29T04:13:58.392Z,100202.63
2022-12-29T04:16:26.654Z,100198.84
2022-12-29T04:18:54.621Z,100209.91
2022-12-29T04:21:24.097Z,100211.59
2022-12-29T04:23:52.155Z,100206.66
2022-12-29T04:26:20.166Z,100211.59
2022-12-29T04:28:52.471Z,100212.25
2022-12-29T04:31:22.911Z,100202.34
2022-12-29T04:33:51.387Z,100206.87
2022-12-29T04:36:19.261Z,100201.38
2022-12-29T04:38:50.044Z,100213.25
2022-12-29T04:41:18.085Z,100210.66
2022-12-29T04:43:46.203Z,100208.88
2022-12-29T04:46:14.899Z,100215.25
2022-12-29T04:48:43.680Z,100206.37
2022-12-29T04:51:11.743Z,100216.25
2022-12-29T04:53:40.172Z,100211.41
2022-12-29T04:56:10.433Z,100208.03
2022-12-29T04:58:41.189Z,100210.75
2022-12-29T05:01:09.457Z,100211.03
2022-12-29T05:03:37.381Z,100219.00
2022-12-29T05:06:05.900Z,100217.69
2022-12-29T05:08:33.983Z,100218.69
2022-12-29T05:11:02.011Z,100215.00
2022-12-29T05:13:29.889Z,100226.66
2022-12-29T05:15:58.467Z,100226.81
2022-12-29T05:18:26.361Z,100227.28
2022-12-29T05:20:55.061Z,100230.28
2022-12-29T05:23:24.542Z,100235.16
2022-12-29T05:25:52.857Z,100246.63
2022-12-29T05:28:20.931Z,100248.72
2022-12-29T05:30:51.440Z,100241.81
2022-12-29T05:33:20.460Z,100244.44
2022-12-29T05:35:51.444Z,100246.25
2022-12-29T05:38:19.936Z,100253.69
2022-12-29T05:40:47.764Z,100257.28
2022-12-29T05:43:16.330Z,100257.28
2022-12-29T05:45:45.252Z,100251.50
2022-12-29T05:48:13.142Z,100268.09
2022-12-29T05:50:41.083Z,100267.25
2022-12-29T05:53:13.133Z,100271.81
2022-12-29T05:55:46.616Z,100279.69
2022-12-29T05:58:18.565Z,100265.53
2022-12-29T06:00:46.810Z,100284.16
2022-12-29T06:03:15.453Z,100291.50
2022-12-29T06:05:47.488Z,100298.34
2022-12-29T06:08:16.548Z,100294.28
2022-12-29T06:10:47.118Z,100294.00
2022-12-29T06:13:15.239Z,100295.34
2022-12-29T06:15:44.429Z,100296.50
2022-12-29T06:18:19.541Z,100293.69
2022-12-29T06:20:49.054Z,100297.72
2022-12-29T06:23:19.730Z,100299.75
2022-12-29T06:25:50.638Z,100296.00
2022-12-29T06:28:18.749Z,100303.12
2022-12-29T06:30:47.170Z,100301.59
2022-12-29T06:33:15.854Z,100305.09
2022-12-29T06:35:47.128Z,100310.53
2022-12-29T06:38:15.995Z,100306.19
2022-12-29T06:40:46.332Z,100295.19
2022-12-29T06:43:17.709Z,100298.81
2022-12-29T06:45:45.797Z,100293.78
2022-12-29T06:48:13.790Z,100293.47
2022-12-29T06:50:42.382Z,100296.12
2022-12-29T06:53:10.127Z,100298.34
2022-12-29T06:55:38.509Z,100298.56
2022-12-29T06:58:06.945Z,100301.13
2022-12-29T07:00:34.799Z,100293.53
2022-12-29T07:03:02.908Z,100303.00
2022-12-29T07:05:33.917Z,100290.31
2022-12-29T07:08:01.935Z,100300.22
2022-12-29T07:10:29.812Z,100307.25
2022-12-29T07:12:58.105Z,100307.66
2022-12-29T07:15:26.024Z,100312.53
2022-12-29T07:17:53.825Z,100305.22
2022-12-29T07:20:26.759Z,100310.22
2022-12-29T07:22:55.776Z,100310.00
2022-12-29T07:25:26.944Z,100307.38
2022-12-29T07:27:55.341Z,100310.56
2022-12-29T07:30:23.262Z,100313.59
2022-12-29T07:32:51.530Z,100312.88
2022-12-29T07:35:19.374Z,100316.13
2022-12-29T07:37:47.528Z,100323.66
2022-12-29T07:40:15.850Z,100312.19
2022-12-29T07:42:43.748Z,100325.28
2022-12-29T07:45:16.402Z,100327.88
2022-12-29T07:47:50.558Z,100321.78
2022-12-29T07:50:18.877Z,100325.16
2022-12-29T07:52:48.287Z,100330.91
2022-12-29T07:55:18.518Z,100327.88
2022-12-29T07:57:46.449Z,100332.91
2022-12-29T08:00:15.367Z,100335.78
2022-12-29T08:02:43.663Z,100333.75
2022-12-29T08:05:11.672Z,100334.38
2022-12-29T08:07:39.597Z,100332.34
2022-12-29T08:10:08.331Z,100339.56
2022-12-29T08:12:36.085Z,100334.78
2022-12-29T08:15:04.509Z,100331.28
2022-12-29T08:17:32.669Z,100332.34
2022-12-29T08:20:00.545Z,100338.91
2022-12-29T08:22:31.188Z,100339.44
2022-12-29T08:24:59.455Z,100336.88
2022-12-29T08:27:27.563Z,100340.00
2022-12-29T08:29:55.507Z,100339.66
2022-12-29T08:32:23.860Z,100343.66
2022-12-29T08:34:52.043Z,100333.16
2022-12-29T08:37:19.835Z,100337.09
2022-12-29T08:39:47.983Z,100332.16
2022-12-29T08:42:15.845Z,100337.59
2022-12-29T08:44:43.851Z,100334.78
2022-12-29T08:47:13.015Z,100326.28
2022-12-29T08:49:43.983Z,100341.13
2022-12-29T08:52:12.213Z,100336.19
2022-12-29T08:54:40.465Z,100338.56
2022-12-29T08:57:08.600Z,100330.47
2022-12-29T08:59:37.236Z,100333.84
2022-12-29T09:02:05.220Z,100338.84
2022-12-29T09:04:33.401Z,100348.00
2022-12-29T09:07:01.593Z,100335.50
2022-12-29T09:09:29.308Z,100338.37
2022-12-29T09:11:57.107Z,100342.28
2022-12-29T09:14:25.410Z,100342.09
2022-12-29T09:17:11.834Z,100339.19
2022-12-29T09:19:40.139Z,100342.28
2022-12-29T09:22:07.905Z,100349.81
2022-12-29T09:24:35.622Z,100341.50
2022-12-29T09:27:03.722Z,100328.06
2022-12-29T09:29:31.431Z,100339.22
2022-12-29T09:31:59.141Z,100341.59
2022-12-29T09:34:27.498Z,100333.25
2022-12-29T09:36:57.467Z,100335.69
2022-12-29T09:39:25.328Z,100341.75
2022-12-29T09:42:26.174Z,100338.81
2022-12-29T09:45:29.560Z,100337.62
2022-12-29T09:47:57.656Z,100328.66
2022-12-29T09:50:31.477Z,100331.72
2022-12-29T09:53:09.210Z,100333.16
2022-12-29T09:56:00.112Z,100327.91
2022-12-29T09:58:42.034Z,100326.56
2022-12-29T10:01:30.294Z,100329.41
2022-12-29T10:04:06.630Z,100326.38
2022-12-29T10:07:27.971Z,100317.34
2022-12-29T10:09:53.158Z,100332.50
2022-12-29T10:12:47.035Z,100332.47
2022-12-29T10:15:35.360Z,100331.72
2022-12-29T10:18:21.471Z,100339.06
2022-12-29T10:21:06.303Z,100318.41
2022-12-29T10:23:40.599Z,100334.03
2022-12-29T10:26:19.186Z,100342.34
2022-12-29T10:28:54.098Z,100328.41
2022-12-29T10:31:36.154Z,100334.06
2022-12-29T10:34:16.499Z,100340.75
2022-12-29T10:36:50.071Z,100339.16
2022-12-29T10:39:49.579Z,100348.53
2022-12-29T10:42:41.871Z,100345.69
2022-12-29T10:45:16.870Z,100342.81
2022-12-29T10:48:13.401Z,100333.47
2022-12-29T10:50:44.294Z,100343.97
2022-12-29T10:53:21.862Z,100340.56
2022-12-29T10:55:51.734Z,100344.12
2022-12-29T10:58:21.118Z,100350.50
2022-12-29T11:00:54.989Z,100355.25
2022-12-29T11:03:36.523Z,100354.59
2022-12-29T11:06:12.646Z,100348.75
2022-12-29T11:08:49.714Z,100367.62
2022-12-29T11:11:27.925Z,100359.75
2022-12-29T11:14:12.739Z,100360.03
2022-12-29T11:16:42.932Z,100364.09
2022-12-29T11:19:23.443Z,100364.31
2022-12-29T11:21:51.839Z,100360.97
2022-12-29T11:24:24.364Z,100356.66
2022-12-29T11:26:58.919Z,100369.41
2022-12-29T11:29:39.329Z,100360.72
2022-12-29T11:32:29.542Z,100358.06
2022-12-29T11:35:00.078Z,100353.81
2022-12-29T11:37:40.953Z,100352.19
2022-12-29T11:40:20.522Z,100356.31
2022-12-29T11:42:57.219Z,100350.31
2022-12-29T11:45:35.468Z,100352.84
2022-12-29T11:48:10.937Z,100356.22
2022-12-29T11:50:41.815Z,100352.87
2022-12-29T11:53:37.246Z,100358.16
2022-12-29T11:56:18.896Z,100367.78
2022-12-29T11:58:51.153Z,100354.16
2022-12-29T12:01:37.792Z,100373.69
2022-12-29T12:04:21.399Z,100363.63
2022-12-29T12:07:36.677Z,100353.53
2022-12-29T12:10:08.044Z,100370.50
2022-12-29T12:12:43.357Z,100362.78
2022-12-29T12:15:23.484Z,100368.87
2022-12-29T12:18:03.641Z,100364.81
2022-12-29T12:20:45.945Z,100373.50
2022-12-29T12:23:43.519Z,100370.19
2022-12-29T12:26:20.072Z,100368.81
2022-12-29T12:28:57.340Z,100365.56
2022-12-29T12:32:07.171Z,100368.31
2022-12-29T12:34:40.845Z,100384.12
2022-12-29T12:37:34.906Z,100379.87
2022-12-29T12:40:27.988Z,100385.91
2022-12-29T12:43:11.815Z,100381.62
2022-12-29T12:48:30.228Z,100388.16
2022-12-29T12:51:16.176Z,100387.31
2022-12-29T12:54:14.075Z,100386.50
2022-12-29T12:57:14.546Z,100376.22
2022-12-29T13:00:01.938Z,100382.09
2022-12-29T13:02:40.294Z,100375.72
2022-12-29T13:05:36.417Z,100373.47
2022-12-29T13:08:19.231Z,100371.34
2022-12-29T13:11:10.076Z,100365.91
2022-12-29T13:13:48.887Z,100368.22
2022-12-29T13:16:33.769Z,100382.75
2022-12-29T13:19:12.883Z,100389.81
2022-12-29T13:21:46.447Z,100375.53
2022-12-29T13:27:15.028Z,100373.06
2022-12-29T13:30:01.121Z,100385.94
2022-12-29T13:32:43.982Z,100381.56
2022-12-29T13:35:28.583Z,100378.38
2022-12-29T13:38:04.922Z,100388.94
2022-12-29T13:40:40.406Z,100381.41
2022-12-29T13:43:09.739Z,100381.91
2022-12-29T13:45:38.383Z,100379.81
2022-12-29T13:48:18.893Z,100379.09
2022-12-29T13:50:53.477Z,100384.84
2022-12-29T13:53:35.714Z,100381.38
2022-12-29T13:56:22.253Z,100390.06
2022-12-29T13:58:59.064Z,100385.44
2022-12-29T14:01:33.781Z,100383.41
2022-12-29T14:04:09.767Z,100385.66
2022-12-29T14:06:44.283Z,100375.38
2022-12-29T14:09:37.275Z,100368.75
2022-12-29T14:12:32.498Z,100381.88
2022-12-29T14:15:12.615Z,100386.00
2022-12-29T14:17:45.299Z,100386.91
2022-12-29T14:20:24.362Z,100383.00
2022-12-29T14:23:01.244Z,100380.38
2022-12-29T14:26:01.517Z,100383.13
2022-12-29T14:28:31.758Z,100383.28
2022-12-29T14:31:02.632Z,100374.28
2022-12-29T14:33:35.885Z,100364.78
2022-12-29T14:36:26.763Z,100373.38
2022-12-29T14:38:54.696Z,100365.91
2022-12-29T14:41:31.876Z,100371.88
2022-12-29T14:44:16.480Z,100375.78
2022-12-29T14:46:47.217Z,100358.94
2022-12-29T14:49:24.630Z,100374.56
2022-12-29T14:51:55.303Z,100370.38
2022-12-29T14:54:38.280Z,100373.59
2022-12-29T14:57:09.620Z,100371.16
2022-12-29T14:59:40.823Z,100376.66
2022-12-29T15:02:20.979Z,100378.94
2022-12-29T15:04:49.866Z,100379.56
2022-12-29T15:07:21.066Z,100371.31
2022-12-29T15:10:14.991Z,100372.81
2022-12-29T15:12:53.165Z,100385.91
2022-12-29T15:15:27.257Z,100376.59
2022-12-29T15:17:55.653Z,100383.06
2022-12-29T15:20:33.288Z,100380.41
2022-12-29T15:23:12.455Z,100383.97
2022-12-29T15:25:55.885Z,100385.13
2022-12-29T15:28:25.197Z,100375.97
2022-12-29T15:30:58.442Z,100382.44
2022-12-29T15:33:29.261Z,100376.59
2022-12-29T15:35:58.892Z,100371.56
2022-12-29T15:38:37.133Z,100369.56
2022-12-29T15:41:25.804Z,100378.66
2022-12-29T15:44:32.234Z,100369.56
2022-12-29T15:47:13.268Z,100371.97
2022-12-29T15:49:44.416Z,100369.50
2022-12-29T15:52:18.415Z,100362.25
2022-12-29T15:54:49.331Z,100364.69
2022-12-29T15:57:24.458Z,100358.81
2022-12-29T15:59:53.434Z,100365.66
2022-12-29T16:02:24.007Z,100353.44
2022-12-29T16:05:16.677Z,100353.53
2022-12-29T16:07:54.348Z,100361.09
2022-12-29T16:10:34.812Z,100367.81
2022-12-29T16:13:24.272Z,100359.25
2022-12-29T16:16:09.338Z,100375.38
2022-12-29T16:18:38.918Z,100363.50
2022-12-29T16:21:19.556Z,100367.09
2022-12-29T16:23:52.032Z,100349.81
2022-12-29T16:26:21.903Z,100366.16
2022-12-29T16:28:53.031Z,100354.97
2022-12-29T16:32:01.945Z,100359.69
2022-12-29T16:34:44.442Z,100358.38
2022-12-29T16:37:32.454Z,100355.56
2022-12-29T16:40:28.876Z,100342.09
2022-12-29T16:43:02.655Z,100343.38
2022-12-29T16:45:45.869Z,100338.56
2022-12-29T16:48:16.939Z,100334.19
2022-12-29T16:50:46.529Z,100326.09
2022-12-29T16:53:29.740Z,100339.44
2022-12-29T16:56:03.037Z,100329.38
2022-12-29T16:58:33.000Z,100330.78
2022-12-29T17:01:04.071Z,100335.34
2022-12-29T17:03:46.041Z,100322.09
2022-12-29T17:06:22.981Z,100317.44
2022-12-29T17:08:52.537Z,100321.97
2022-12-29T17:11:43.552Z,100319.59
2022-12-29T17:14:34.197Z,100309.38
2022-12-29T17:17:02.457Z,100314.87
2022-12-29T17:19:39.061Z,100304.75
2022-12-29T17:22:23.071Z,100306.06
2022-12-29T17:24:51.531Z,100310.03
2022-12-29T17:27:26.063Z,100304.69
2022-12-29T17:29:58.775Z,100292.03
2022-12-29T17:32:26.829Z,100306.22
2022-12-29T17:34:55.234Z,100308.66
2022-12-29T17:37:29.378Z,100311.16
2022-12-29T17:39:57.624Z,100308.66
2022-12-29T17:42:25.927Z,100306.13
2022-12-29T17:44:53.983Z,100301.97
2022-12-29T17:47:22.268Z,100301.78
2022-12-29T17:49:50.245Z,100302.44
2022-12-29T17:52:18.383Z,100304.78
2022-12-29T17:54:50.471Z,100304.81
2022-12-29T17:57:20.109Z,100293.38
2022-12-29T17:59:48.449Z,100288.69
2022-12-29T18:02:32.966Z,100293.69
2022-12-29T18:05:01.434Z,100289.62
2022-12-29T18:07:36.008Z,100289.75
2022-12-29T18:10:04.830Z,100299.72
2022-12-29T18:12:41.983Z,100289.38
2022-12-29T18:15:21.230Z,100292.13
2022-12-29T18:17:50.073Z,100287.69
2022-12-29T18:20:18.315Z,100279.47
2022-12-29T18:22:46.051Z,100295.13
2022-12-29T18:25:52.567Z,100290.38
2022-12-29T18:28:21.123Z,100295.38
2022-12-29T18:30:49.151Z,100291.72
2022-12-29T18:33:23.392Z,100286.81
2022-12-29T18:36:05.515Z,100303.50
2022-12-29T18:38:33.338Z,100287.44
2022-12-29T18:41:04.895Z,100292.38
2022-12-29T18:43:32.800Z,100293.25
2022-12-29T18:46:01.274Z,100290.38
2022-12-29T18:48:29.600Z,100275.34
2022-12-29T18:50:57.418Z,100279.00
2022-12-29T18:53:26.069Z,100275.41
2022-12-29T18:55:54.558Z,100273.34
2022-12-29T18:58:22.466Z,100280.66
2022-12-29T19:00:51.418Z,100273.47
2022-12-29T19:03:19.665Z,100274.97
2022-12-29T19:05:49.359Z,100270.81
2022-12-29T19:08:17.451Z,100271.50
2022-12-29T19:10:46.244Z,100271.37
2022-12-29T19:13:19.777Z,100266.84
2022-12-29T19:15:48.326Z,100264.34
2022-12-29T19:21:12.917Z,100266.16
2022-12-29T19:23:44.342Z,100263.00
2022-12-29T19:26:34.859Z,100264.53
2022-12-29T19:29:03.027Z,100265.22
2022-12-29T19:31:31.298Z,100266.03
2022-12-29T19:33:59.059Z,100262.00
2022-12-29T19:36:26.999Z,100261.66
2022-12-29T19:38:56.202Z,100266.03
2022-12-29T19:41:24.121Z,100267.28
2022-12-29T19:43:52.000Z,100265.72
2022-12-29T19:46:20.892Z,100256.50
2022-12-29T19:48:48.746Z,100255.06
2022-12-29T19:51:17.522Z,100264.09
2022-12-29T19:53:46.647Z,100258.91
2022-12-29T19:56:15.630Z,100250.56
2022-12-29T19:58:47.192Z,100260.09
2022-12-29T20:01:23.161Z,100260.00
2022-12-29T20:03:52.515Z,100248.88
2022-12-29T20:06:20.603Z,100259.59
2022-12-29T20:08:51.751Z,100253.94
2022-12-29T20:11:20.282Z,100249.75
2022-12-29T20:13:48.767Z,100237.34
2022-12-29T20:16:18.986Z,100247.69
2022-12-29T20:18:48.452Z,100242.84
2022-12-29T20:21:21.857Z,100239.22
2022-12-29T20:23:53.118Z,100247.37
2022-12-29T20:26:29.473Z,100237.34
2022-12-29T20:28:58.951Z,100241.50
2022-12-29T20:31:31.719Z,100243.59
2022-12-29T20:34:00.170Z,100242.06
2022-12-29T20:36:31.544Z,100248.69
2022-12-29T20:39:02.036Z,100245.81
2022-12-29T20:41:31.476Z,100241.00
2022-12-29T20:43:59.748Z,100245.56
2022-12-29T20:46:34.060Z,100241.25
2022-12-29T20:49:11.469Z,100239.19
2022-12-29T20:52:05.226Z,100234.63
2022-12-29T20:54:29.934Z,100231.44
2022-12-29T20:57:00.265Z,100225.28
2022-12-29T20:59:29.166Z,100236.72
2022-12-29T21:01:58.630Z,100220.44
2022-12-29T21:04:27.031Z,100228.25
2022-12-29T21:06:55.760Z,100229.03
2022-12-29T21:09:24.107Z,100228.62
2022-12-29T21:11:52.228Z,100231.31
2022-12-29T21:14:20.513Z,100231.28
2022-12-29T21:16:50.770Z,100230.09
2022-12-29T21:19:18.684Z,100209.44
2022-12-29T21:21:46.837Z,100210.88
2022-12-29T21:24:14.662Z,100193.47
2022-12-29T21:26:43.276Z,100162.75
2022-12-29T21:29:11.633Z,100217.09
2022-12-29T21:31:39.485Z,100211.72
2022-12-29T21:34:07.618Z,100207.16
2022-12-29T21:36:36.298Z,100204.56
2022-12-29T21:39:04.898Z,100205.53
2022-12-29T21:41:33.708Z,100203.50
2022-12-29T21:44:20.739Z,100210.25
2022-12-29T21:46:48.483Z,100194.22
2022-12-29T21:49:16.770Z,100189.50
2022-12-29T21:51:50.661Z,100184.81
2022-12-29T21:54:43.744Z,100190.94
2022-12-29T21:57:38.661Z,100190.31
2022-12-29T22:00:28.136Z,100186.13
2022-12-29T22:03:23.064Z,100181.00
2022-12-29T22:06:11.312Z,100176.28
2022-12-29T22:08:59.254Z,100172.50
2022-12-29T22:11:45.839Z,100171.69
2022-12-29T22:14:13.915Z,100168.97
2022-12-29T22:16:41.795Z,100178.72
2022-12-29T22:19:12.357Z,100175.41
2022-12-29T22:21:40.618Z,100167.00
2022-12-29T22:24:09.100Z,100166.53
2022-12-29T22:26:36.938Z,100162.41
2022-12-29T22:29:05.049Z,100160.78
2022-12-29T22:31:33.471Z,100149.66
2022-12-29T22:34:03.581Z,100156.50
2022-12-29T22:36:32.643Z,100160.03
2022-12-29T22:39:01.420Z,100159.75
2022-12-29T22:41:29.337Z,100156.38
2022-12-29T22:43:57.534Z,100154.84
2022-12-29T22:46:25.492Z,100153.47
2022-12-29T22:48:53.506Z,100160.88
2022-12-29T22:51:21.553Z,100153.09
2022-12-29T22:53:50.264Z,100156.41
2022-12-29T22:56:18.610Z,100147.38
2022-12-29T22:58:48.758Z,100158.59
2022-12-29T23:01:22.331Z,100157.53
2022-12-29T23:04:01.071Z,100147.19
2022-12-29T23:06:41.714Z,100150.66
2022-12-29T23:09:18.922Z,100146.91
2022-12-29T23:11:50.135Z,100142.94
2022-12-29T23:14:18.315Z,100152.00
2022-12-29T23:16:46.673Z,100146.75
2022-12-29T23:19:14.589Z,100145.78
2022-12-29T23:21:42.672Z,100151.66
2022-12-29T23:24:14.555Z,100162.66
2022-12-29T23:26:45.626Z,100159.97
2022-12-29T23:29:16.040Z,100150.28
2022-12-29T23:31:44.949Z,100153.75
2022-12-29T23:34:17.487Z,100148.22
2022-12-29T23:36:45.582Z,100149.53
2022-12-29T23:39:23.611Z,100151.91
2022-12-29T23:41:52.823Z,100146.91
2022-12-29T23:44:20.643Z,100159.16
2022-12-29T23:46:48.733Z,100152.91
2022-12-29T23:49:17.087Z,100155.84
2022-12-29T23:51:44.988Z,100151.56
2022-12-29T23:54:12.849Z,100157.62
2022-12-29T23:56:41.066Z,100159.22
2022-12-29T23:59:08.921Z,100156.41
